createdAt,value
2019-02-16T00:00:45.426Z,101678.49
2019-02-16T00:01:49.515Z,101680.70
2019-02-16T00:02:53.612Z,101679.39
2019-02-16T00:03:57.545Z,101678.48
2019-02-16T00:05:01.675Z,101678.48
2019-02-16T00:06:05.842Z,101682.08
2019-02-16T00:07:09.699Z,101683.41
2019-02-16T00:08:13.591Z,101681.16
2019-02-16T00:09:17.490Z,101661.94
2019-02-16T00:10:21.926Z,101680.28
2019-02-16T00:11:26.132Z,101686.08
2019-02-16T00:12:30.339Z,101682.94
2019-02-16T00:13:34.663Z,101685.64
2019-02-16T00:14:38.803Z,101676.24
2019-02-16T00:15:42.612Z,101678.91
2019-02-16T00:16:46.600Z,101681.63
2019-02-16T00:17:50.483Z,101679.84
2019-02-16T00:18:54.382Z,101678.48
2019-02-16T00:19:58.448Z,101669.55
2019-02-16T00:21:04.257Z,101673.57
2019-02-16T00:22:08.957Z,101674.91
2019-02-16T00:23:13.239Z,101673.57
2019-02-16T00:24:17.114Z,101682.52
2019-02-16T00:25:21.238Z,101682.52
2019-02-16T00:26:25.047Z,101680.70
2019-02-16T00:27:28.859Z,101679.36
2019-02-16T00:28:32.729Z,101677.59
2019-02-16T00:29:36.799Z,101677.59
2019-02-16T00:30:41.139Z,101674.90
2019-02-16T00:31:45.326Z,101682.97
2019-02-16T00:32:50.107Z,101683.86
2019-02-16T00:33:54.497Z,101682.06
2019-02-16T00:34:58.629Z,101678.50
2019-02-16T00:36:02.438Z,101680.27
2019-02-16T00:37:06.315Z,101674.90
2019-02-16T00:38:10.486Z,101677.58
2019-02-16T00:39:14.302Z,101684.28
2019-02-16T00:40:18.188Z,101681.61
2019-02-16T00:41:22.357Z,101678.48
2019-02-16T00:42:26.307Z,101677.13
2019-02-16T00:43:30.683Z,101677.58
2019-02-16T00:44:34.503Z,101678.47
2019-02-16T00:45:38.379Z,101683.38
2019-02-16T00:46:42.184Z,101676.67
2019-02-16T00:47:46.232Z,101675.78
2019-02-16T00:48:50.786Z,101676.22
2019-02-16T00:49:54.605Z,101677.13
2019-02-16T00:50:58.412Z,101679.80
2019-02-16T00:52:02.221Z,101674.88
2019-02-16T00:53:06.104Z,101666.86
2019-02-16T00:54:09.907Z,101667.73
2019-02-16T00:55:13.987Z,101673.56
2019-02-16T00:56:17.800Z,101672.64
2019-02-16T00:57:21.875Z,101669.98
2019-02-16T00:58:25.926Z,101671.77
2019-02-16T00:59:30.003Z,101670.87
2019-02-16T01:00:33.898Z,101664.16
2019-02-16T01:01:37.762Z,101664.59
2019-02-16T01:02:42.059Z,101656.09
2019-02-16T01:03:46.127Z,101664.61
2019-02-16T01:04:50.275Z,101661.91
2019-02-16T01:05:54.088Z,101660.13
2019-02-16T01:06:58.277Z,101661.91
2019-02-16T01:08:02.756Z,101660.57
2019-02-16T01:09:06.987Z,101653.84
2019-02-16T01:10:10.934Z,101660.11
2019-02-16T01:11:15.128Z,101662.78
2019-02-16T01:12:18.952Z,101660.13
2019-02-16T01:13:22.770Z,101656.09
2019-02-16T01:14:27.101Z,101663.26
2019-02-16T01:15:31.253Z,101661.47
2019-02-16T01:16:35.076Z,101657.89
2019-02-16T01:17:38.890Z,101661.90
2019-02-16T01:18:42.706Z,101656.55
2019-02-16T01:19:46.594Z,101656.11
2019-02-16T01:20:50.425Z,101652.52
2019-02-16T01:21:54.311Z,101653.43
2019-02-16T01:22:58.125Z,101651.17
2019-02-16T01:24:02.322Z,101648.03
2019-02-16T01:25:07.023Z,101653.86
2019-02-16T01:26:11.216Z,101646.69
2019-02-16T01:27:15.421Z,101652.51
2019-02-16T01:28:19.524Z,101645.37
2019-02-16T01:29:23.409Z,101648.02
2019-02-16T01:30:27.235Z,101644.42
2019-02-16T01:31:31.048Z,101647.13
2019-02-16T01:32:34.923Z,101649.35
2019-02-16T01:33:38.991Z,101640.84
2019-02-16T01:34:43.118Z,101636.81
2019-02-16T01:35:47.323Z,101635.48
2019-02-16T01:36:51.216Z,101636.83
2019-02-16T01:37:55.031Z,101635.05
2019-02-16T01:38:58.849Z,101634.62
2019-02-16T01:40:02.669Z,101634.59
2019-02-16T01:41:06.819Z,101629.68
2019-02-16T01:42:11.024Z,101630.11
2019-02-16T01:43:14.839Z,101632.80
2019-02-16T01:47:13.428Z,101629.65
2019-02-16T01:48:17.634Z,101625.22
2019-02-16T01:49:21.834Z,101624.70
2019-02-16T01:50:26.058Z,101626.50
2019-02-16T01:51:32.213Z,101624.72
2019-02-16T01:52:36.087Z,101622.50
2019-02-16T01:53:40.335Z,101626.50
2019-02-16T01:54:44.511Z,101622.91
2019-02-16T01:55:48.630Z,101623.81
2019-02-16T01:56:53.020Z,101631.88
2019-02-16T01:57:57.382Z,101623.37
2019-02-16T01:59:01.314Z,101622.94
2019-02-16T02:00:05.698Z,101625.61
2019-02-16T02:01:10.150Z,101621.16
2019-02-16T02:02:14.331Z,101623.84
2019-02-16T02:03:18.334Z,101625.17
2019-02-16T02:04:22.187Z,101625.63
2019-02-16T02:05:26.049Z,101630.55
2019-02-16T02:06:29.921Z,101629.64
2019-02-16T02:07:34.159Z,101630.97
2019-02-16T02:08:38.169Z,101634.10
2019-02-16T02:09:42.187Z,101633.19
2019-02-16T02:10:46.121Z,101636.31
2019-02-16T02:11:50.388Z,101631.41
2019-02-16T02:12:54.322Z,101637.66
2019-02-16T02:13:58.256Z,101637.22
2019-02-16T02:15:02.639Z,101632.70
2019-02-16T02:16:06.491Z,101635.44
2019-02-16T02:17:10.439Z,101636.75
2019-02-16T02:18:14.997Z,101627.84
2019-02-16T02:19:18.926Z,101640.35
2019-02-16T02:20:24.824Z,101633.63
2019-02-16T02:21:29.041Z,101634.95
2019-02-16T02:22:32.970Z,101636.30
2019-02-16T02:23:37.156Z,101640.33
2019-02-16T02:24:41.644Z,101634.50
2019-02-16T02:25:45.569Z,101634.50
2019-02-16T02:26:49.450Z,101637.63
2019-02-16T02:27:53.307Z,101632.75
2019-02-16T02:28:57.312Z,101639.92
2019-02-16T02:30:01.876Z,101634.56
2019-02-16T02:31:05.790Z,101639.45
2019-02-16T02:32:10.017Z,101637.20
2019-02-16T02:33:14.271Z,101635.85
2019-02-16T02:34:18.887Z,101638.07
2019-02-16T02:35:22.888Z,101640.77
2019-02-16T02:36:27.197Z,101635.40
2019-02-16T02:37:31.076Z,101634.07
2019-02-16T02:38:35.511Z,101636.27
2019-02-16T02:39:39.443Z,101638.05
2019-02-16T02:40:43.706Z,101640.28
2019-02-16T02:41:47.917Z,101639.84
2019-02-16T02:42:52.125Z,101635.82
2019-02-16T02:43:56.419Z,101634.48
2019-02-16T02:45:00.429Z,101633.59
2019-02-16T02:46:04.668Z,101635.34
2019-02-16T02:47:08.595Z,101631.77
2019-02-16T02:48:12.544Z,101642.48
2019-02-16T02:49:16.802Z,101631.29
2019-02-16T02:50:20.989Z,101637.55
2019-02-16T02:51:24.983Z,101634.85
2019-02-16T02:52:29.256Z,101633.52
2019-02-16T02:53:33.268Z,101638.89
2019-02-16T02:54:37.796Z,101633.07
2019-02-16T02:55:41.725Z,101636.20
2019-02-16T02:56:45.909Z,101637.55
2019-02-16T02:57:50.400Z,101634.44
2019-02-16T02:58:55.000Z,101630.84
2019-02-16T02:59:59.259Z,101636.66
2019-02-16T03:01:03.511Z,101634.86
2019-02-16T03:02:07.451Z,101637.52
2019-02-16T03:03:11.623Z,101628.14
2019-02-16T03:04:15.628Z,101632.59
2019-02-16T03:05:19.557Z,101643.33
2019-02-16T03:06:23.488Z,101635.72
2019-02-16T03:07:27.667Z,101633.94
2019-02-16T03:08:32.191Z,101637.95
2019-02-16T03:09:36.195Z,101633.03
2019-02-16T03:10:40.734Z,101633.05
2019-02-16T03:11:44.751Z,101636.61
2019-02-16T03:12:49.199Z,101634.84
2019-02-16T03:13:53.141Z,101638.86
2019-02-16T03:14:57.307Z,101633.05
2019-02-16T03:16:01.487Z,101632.16
2019-02-16T03:17:05.748Z,101636.61
2019-02-16T03:18:09.988Z,101637.50
2019-02-16T03:19:13.916Z,101634.81
2019-02-16T03:20:18.191Z,101637.50
2019-02-16T03:21:22.200Z,101633.91
2019-02-16T03:22:46.728Z,101632.56
2019-02-16T03:23:51.287Z,101640.14
2019-02-16T03:24:56.461Z,101635.25
2019-02-16T03:26:33.512Z,101639.27
2019-02-16T03:28:23.572Z,101642.83
2019-02-16T03:29:34.843Z,101634.75
2019-02-16T03:31:23.811Z,101636.05
2019-02-16T03:33:03.701Z,101645.85
2019-02-16T03:34:22.042Z,101636.92
2019-02-16T03:36:19.096Z,101636.45
2019-02-16T03:37:50.877Z,101637.31
2019-02-16T03:39:08.339Z,101635.94
2019-02-16T03:40:12.393Z,101638.62
2019-02-16T03:41:16.620Z,101641.72
2019-02-16T03:42:21.319Z,101636.86
2019-02-16T03:43:25.687Z,101637.34
2019-02-16T03:44:30.739Z,101627.94
2019-02-16T03:45:34.782Z,101627.91
2019-02-16T03:46:39.062Z,101625.22
2019-02-16T03:47:43.414Z,101627.48
2019-02-16T03:48:47.274Z,101636.39
2019-02-16T03:49:51.576Z,101623.47
2019-02-16T03:50:55.947Z,101628.37
2019-02-16T03:52:00.298Z,101630.54
2019-02-16T03:53:04.240Z,101634.99
2019-02-16T03:54:08.409Z,101628.73
2019-02-16T03:55:12.712Z,101623.83
2019-02-16T03:56:16.976Z,101632.80
2019-02-16T03:57:20.922Z,101622.51
2019-02-16T03:58:25.426Z,101629.61
2019-02-16T03:59:29.558Z,101632.25
2019-02-16T04:00:33.797Z,101625.14
2019-02-16T04:01:38.007Z,101627.77
2019-02-16T04:02:42.372Z,101625.05
2019-02-16T04:03:46.559Z,101626.87
2019-02-16T04:04:50.943Z,101623.31
2019-02-16T04:05:55.042Z,101618.36
2019-02-16T04:06:58.976Z,101623.73
2019-02-16T04:08:02.904Z,101625.97
2019-02-16T04:09:07.488Z,101621.09
2019-02-16T04:10:12.260Z,101619.73
2019-02-16T04:11:16.692Z,101621.50
2019-02-16T04:12:20.626Z,101620.63
2019-02-16T04:13:24.494Z,101621.02
2019-02-16T04:14:28.668Z,101614.75
2019-02-16T04:15:32.692Z,101619.66
2019-02-16T04:16:36.785Z,101612.48
2019-02-16T04:17:40.878Z,101613.40
2019-02-16T04:18:44.884Z,101616.09
2019-02-16T04:19:48.811Z,101610.25
2019-02-16T04:20:52.757Z,101615.14
2019-02-16T04:21:56.928Z,101614.26
2019-02-16T04:23:01.104Z,101615.14
2019-02-16T04:24:05.362Z,101613.78
2019-02-16T04:25:09.383Z,101614.22
2019-02-16T04:26:13.556Z,101613.80
2019-02-16T04:27:17.740Z,101615.14
2019-02-16T04:28:21.681Z,101608.95
2019-02-16T04:29:25.796Z,101612.94
2019-02-16T04:30:29.668Z,101617.01
2019-02-16T04:31:33.614Z,101607.57
2019-02-16T04:32:37.727Z,101603.08
2019-02-16T04:33:41.898Z,101611.09
2019-02-16T04:34:45.759Z,101611.09
2019-02-16T04:35:49.775Z,101606.18
2019-02-16T04:36:53.785Z,101611.09
2019-02-16T04:37:57.645Z,101609.75
2019-02-16T04:39:01.587Z,101612.39
2019-02-16T04:40:05.886Z,101618.66
2019-02-16T04:41:09.907Z,101613.74
2019-02-16T04:42:14.134Z,101617.32
2019-02-16T04:43:18.582Z,101617.30
2019-02-16T04:44:22.897Z,101618.22
2019-02-16T04:45:27.410Z,101616.37
2019-02-16T04:46:32.124Z,101614.64
2019-02-16T04:47:36.839Z,101617.72
2019-02-16T04:48:41.147Z,101621.77
2019-02-16T04:49:45.357Z,101623.55
2019-02-16T04:50:49.665Z,101618.66
2019-02-16T04:51:53.602Z,101625.80
2019-02-16T04:52:57.783Z,101628.92
2019-02-16T04:54:01.649Z,101624.42
2019-02-16T04:55:06.316Z,101618.58
2019-02-16T04:56:10.587Z,101619.03
2019-02-16T04:57:14.896Z,101623.89
2019-02-16T04:58:19.103Z,101625.23
2019-02-16T04:59:23.337Z,101615.86
2019-02-16T05:00:27.255Z,101615.41
2019-02-16T05:01:31.825Z,101618.97
2019-02-16T05:02:35.693Z,101614.13
2019-02-16T05:03:39.782Z,101616.82
2019-02-16T05:04:43.718Z,101619.44
2019-02-16T05:05:47.655Z,101619.87
2019-02-16T05:06:51.631Z,101621.62
2019-02-16T05:07:55.552Z,101613.60
2019-02-16T05:08:59.537Z,101623.42
2019-02-16T05:10:03.831Z,101622.97
2019-02-16T05:11:08.063Z,101622.52
2019-02-16T05:12:12.238Z,101615.86
2019-02-16T05:13:16.639Z,101616.73
2019-02-16T05:14:21.060Z,101611.85
2019-02-16T05:15:25.676Z,101618.95
2019-02-16T05:16:29.986Z,101619.81
2019-02-16T05:17:34.003Z,101618.53
2019-02-16T05:18:37.990Z,101619.00
2019-02-16T05:19:42.202Z,101621.25
2019-02-16T05:20:46.207Z,101619.94
2019-02-16T05:21:50.279Z,101625.66
2019-02-16T05:22:54.141Z,101624.74
2019-02-16T05:23:58.369Z,101632.33
2019-02-16T05:25:02.317Z,101637.16
2019-02-16T05:26:06.226Z,101636.25
2019-02-16T05:27:10.177Z,101633.11
2019-02-16T05:28:14.376Z,101637.13
2019-02-16T05:29:18.484Z,101643.37
2019-02-16T05:30:22.507Z,101642.91
2019-02-16T05:31:26.637Z,101648.72
2019-02-16T05:32:31.006Z,101642.47
2019-02-16T05:33:34.952Z,101643.79
2019-02-16T05:34:39.227Z,101647.35
2019-02-16T05:35:43.397Z,101648.69
2019-02-16T05:36:48.126Z,101649.56
2019-02-16T05:37:52.222Z,101652.68
2019-02-16T05:38:56.409Z,101645.97
2019-02-16T05:40:00.418Z,101648.19
2019-02-16T05:41:04.414Z,101650.41
2019-02-16T05:42:08.267Z,101643.28
2019-02-16T05:43:12.712Z,101639.27
2019-02-16T05:44:16.642Z,101639.70
2019-02-16T05:45:20.568Z,101638.34
2019-02-16T05:46:24.827Z,101635.20
2019-02-16T05:47:29.252Z,101633.84
2019-02-16T05:48:33.204Z,101639.61
2019-02-16T05:49:37.904Z,101638.27
2019-02-16T05:50:41.835Z,101638.70
2019-02-16T05:51:46.000Z,101635.55
2019-02-16T05:52:54.418Z,101637.84
2019-02-16T05:53:56.049Z,101633.41
2019-02-16T05:55:00.328Z,101631.64
2019-02-16T05:56:04.982Z,101638.80
2019-02-16T05:57:09.186Z,101637.40
2019-02-16T05:58:13.550Z,101635.52
2019-02-16T05:59:17.496Z,101633.80
2019-02-16T06:00:25.185Z,101627.92
2019-02-16T06:01:29.695Z,101623.39
2019-02-16T06:02:34.003Z,101633.13
2019-02-16T06:03:38.136Z,101630.86
2019-02-16T06:04:42.347Z,101631.28
2019-02-16T06:05:46.278Z,101629.92
2019-02-16T06:06:50.308Z,101628.56
2019-02-16T06:07:54.253Z,101638.28
2019-02-16T06:08:58.231Z,101637.41
2019-02-16T06:10:02.146Z,101637.83
2019-02-16T06:11:06.418Z,101638.27
2019-02-16T06:12:11.164Z,101643.60
2019-02-16T06:13:15.330Z,101644.00
2019-02-16T06:14:19.490Z,101643.10
2019-02-16T06:15:23.574Z,101640.91
2019-02-16T06:16:27.449Z,101645.80
2019-02-16T06:17:31.818Z,101641.79
2019-02-16T06:18:36.275Z,101646.67
2019-02-16T06:19:40.479Z,101648.47
2019-02-16T06:20:44.680Z,101648.91
2019-02-16T06:21:48.995Z,101656.53
2019-02-16T06:22:53.300Z,101653.85
2019-02-16T06:23:57.912Z,101655.19
2019-02-16T06:25:01.829Z,101656.16
2019-02-16T06:26:05.937Z,101662.88
2019-02-16T06:27:10.225Z,101654.94
2019-02-16T06:28:14.427Z,101658.03
2019-02-16T06:29:18.942Z,101655.84
2019-02-16T06:30:23.147Z,101661.63
2019-02-16T06:31:27.089Z,101659.91
2019-02-16T06:32:31.240Z,101663.92
2019-02-16T06:33:35.789Z,101661.27
2019-02-16T06:34:40.116Z,101662.17
2019-02-16T06:35:48.121Z,101662.68
2019-02-16T06:36:52.578Z,101662.69
2019-02-16T06:37:57.108Z,101662.73
2019-02-16T06:39:01.311Z,101664.01
2019-02-16T06:40:05.713Z,101666.23
2019-02-16T06:41:09.651Z,101660.89
2019-02-16T06:42:13.517Z,101666.68
2019-02-16T06:43:17.466Z,101672.09
2019-02-16T06:44:21.495Z,101663.20
2019-02-16T06:45:25.512Z,101666.77
2019-02-16T06:46:29.382Z,101668.13
2019-02-16T06:47:33.414Z,101668.12
2019-02-16T06:48:37.336Z,101676.59
2019-02-16T06:49:41.660Z,101677.47
2019-02-16T06:50:45.671Z,101672.55
2019-02-16T06:51:50.063Z,101672.14
2019-02-16T06:52:54.006Z,101676.58
2019-02-16T06:53:57.946Z,101677.48
2019-02-16T06:55:02.132Z,101673.02
2019-02-16T06:56:20.050Z,101675.23
2019-02-16T06:57:29.280Z,101681.91
2019-02-16T06:58:33.491Z,101685.88
2019-02-16T06:59:37.364Z,101680.95
2019-02-16T07:00:41.591Z,101684.04
2019-02-16T07:01:45.453Z,101686.27
2019-02-16T07:02:49.821Z,101682.67
2019-02-16T07:03:53.932Z,101685.40
2019-02-16T07:04:58.386Z,101680.52
2019-02-16T07:06:02.566Z,101682.27
2019-02-16T07:07:07.495Z,101681.34
2019-02-16T07:08:11.437Z,101677.34
2019-02-16T07:09:15.359Z,101675.58
2019-02-16T07:10:19.563Z,101676.95
2019-02-16T07:11:24.068Z,101680.06
2019-02-16T07:12:28.167Z,101675.53
2019-02-16T07:13:32.282Z,101678.19
2019-02-16T07:14:36.471Z,101680.42
2019-02-16T07:15:40.494Z,101678.19
2019-02-16T07:16:56.422Z,101679.41
2019-02-16T07:18:26.003Z,101679.42
2019-02-16T07:19:39.513Z,101679.32
2019-02-16T07:20:43.889Z,101682.41
2019-02-16T07:21:48.092Z,101684.63
2019-02-16T07:22:51.951Z,101693.08
2019-02-16T07:23:56.299Z,101685.52
2019-02-16T07:25:00.571Z,101683.72
2019-02-16T07:26:05.009Z,101684.23
2019-02-16T07:27:09.242Z,101680.66
2019-02-16T07:28:13.223Z,101681.11
2019-02-16T07:29:17.232Z,101679.77
2019-02-16T07:30:21.185Z,101685.06
2019-02-16T07:31:25.540Z,101682.34
2019-02-16T07:32:29.842Z,101688.19
2019-02-16T07:33:33.778Z,101689.48
2019-02-16T07:34:37.808Z,101686.79
2019-02-16T07:35:41.755Z,101691.71
2019-02-16T07:36:45.686Z,101679.25
2019-02-16T07:37:49.568Z,101680.57
2019-02-16T07:38:53.581Z,101683.27
2019-02-16T07:39:58.051Z,101689.45
2019-02-16T07:41:02.000Z,101683.31
2019-02-16T07:42:06.015Z,101686.52
2019-02-16T07:43:20.294Z,101687.41
2019-02-16T07:44:43.299Z,101684.77
2019-02-16T07:45:55.487Z,101682.48
2019-02-16T07:47:10.054Z,101684.25
2019-02-16T07:48:21.558Z,101686.05
2019-02-16T07:49:30.971Z,101684.66
2019-02-16T07:50:51.963Z,101686.80
2019-02-16T07:52:05.870Z,101685.91
2019-02-16T07:53:31.381Z,101688.14
2019-02-16T07:54:46.297Z,101687.68
2019-02-16T07:55:58.727Z,101685.01
2019-02-16T07:57:07.503Z,101683.67
2019-02-16T07:58:19.076Z,101684.13
2019-02-16T07:59:34.515Z,101696.16
2019-02-16T08:01:06.498Z,101694.87
2019-02-16T08:02:29.664Z,101688.19
2019-02-16T08:03:53.007Z,101692.25
2019-02-16T08:05:19.266Z,101690.45
2019-02-16T08:06:45.262Z,101693.59
2019-02-16T08:07:58.955Z,101691.78
2019-02-16T08:09:13.102Z,101696.23
2019-02-16T08:10:41.115Z,101690.86
2019-02-16T08:12:07.065Z,101693.52
2019-02-16T08:13:33.434Z,101696.64
2019-02-16T08:15:08.786Z,101689.94
2019-02-16T08:16:18.471Z,101685.50
2019-02-16T08:17:37.644Z,101681.17
2019-02-16T08:19:07.450Z,101674.92
2019-02-16T08:20:43.297Z,101677.64
2019-02-16T08:21:57.762Z,101666.09
2019-02-16T08:23:11.542Z,101671.98
2019-02-16T08:24:49.910Z,101672.42
2019-02-16T08:26:01.019Z,101667.06
2019-02-16T08:27:13.565Z,101671.14
2019-02-16T08:28:28.903Z,101676.50
2019-02-16T08:29:40.711Z,101673.91
2019-02-16T08:31:03.043Z,101675.23
2019-02-16T08:32:22.474Z,101671.58
2019-02-16T08:33:32.127Z,101677.75
2019-02-16T08:34:46.022Z,101672.91
2019-02-16T08:36:08.577Z,101663.16
2019-02-16T08:37:50.207Z,101665.00
2019-02-16T08:39:04.926Z,101661.45
2019-02-16T08:40:34.327Z,101664.73
2019-02-16T08:42:06.293Z,101658.10
2019-02-16T08:43:18.374Z,101656.85
2019-02-16T08:44:35.963Z,101664.42
2019-02-16T08:45:49.415Z,101661.75
2019-02-16T08:47:09.668Z,101660.91
2019-02-16T08:48:20.130Z,101664.05
2019-02-16T08:49:49.754Z,101660.45
2019-02-16T08:51:03.787Z,101664.47
2019-02-16T08:52:32.454Z,101665.03
2019-02-16T08:54:00.083Z,101665.02
2019-02-16T08:55:22.034Z,101657.53
2019-02-16T08:56:54.307Z,101656.69
2019-02-16T08:58:11.720Z,101651.39
2019-02-16T08:59:29.112Z,101654.09
2019-02-16T09:01:01.438Z,101651.91
2019-02-16T09:02:24.736Z,101655.08
2019-02-16T09:03:54.358Z,101651.55
2019-02-16T09:05:23.573Z,101652.94
2019-02-16T09:06:37.380Z,101645.83
2019-02-16T09:07:58.677Z,101644.03
2019-02-16T09:09:20.156Z,101651.20
2019-02-16T09:10:50.279Z,101648.11
2019-02-16T09:12:08.772Z,101649.91
2019-02-16T09:13:23.731Z,101646.80
2019-02-16T09:14:36.055Z,101647.28
2019-02-16T09:15:52.605Z,101645.94
2019-02-16T09:17:08.998Z,101642.41
2019-02-16T09:18:31.262Z,101645.98
2019-02-16T09:19:51.701Z,101632.64
2019-02-16T09:21:14.480Z,101634.88
2019-02-16T09:22:35.183Z,101632.27
2019-02-16T09:24:04.048Z,101634.05
2019-02-16T09:25:27.293Z,101634.07
2019-02-16T09:26:48.471Z,101627.82
2019-02-16T09:28:17.641Z,101631.44
2019-02-16T09:29:39.790Z,101630.57
2019-02-16T09:31:11.756Z,101627.45
2019-02-16T09:32:37.458Z,101623.42
2019-02-16T09:33:54.827Z,101623.89
2019-02-16T09:35:23.678Z,101622.56
2019-02-16T09:36:34.200Z,101624.35
2019-02-16T09:37:57.193Z,101622.11
2019-02-16T09:39:16.624Z,101615.42
2019-02-16T09:40:48.892Z,101621.23
2019-02-16T09:42:14.983Z,101614.95
2019-02-16T09:43:31.403Z,101613.16
2019-02-16T09:44:51.153Z,101619.00
2019-02-16T09:46:12.086Z,101608.23
2019-02-16T09:47:40.542Z,101611.36
2019-02-16T09:48:51.988Z,101606.86
2019-02-16T09:50:30.692Z,101606.41
2019-02-16T09:51:47.227Z,101606.42
2019-02-16T09:53:03.973Z,101609.54
2019-02-16T09:54:27.354Z,101613.09
2019-02-16T09:55:48.590Z,101616.67
2019-02-16T09:57:08.731Z,101608.62
2019-02-16T09:58:37.453Z,101606.36
2019-02-16T09:59:51.621Z,101608.61
2019-02-16T10:01:13.487Z,101609.92
2019-02-16T10:02:28.291Z,101610.34
2019-02-16T10:03:57.351Z,101609.86
2019-02-16T10:05:10.243Z,101602.69
2019-02-16T10:06:41.367Z,101604.92
2019-02-16T10:08:04.546Z,101604.44
2019-02-16T10:09:14.591Z,101609.78
2019-02-16T10:10:37.316Z,101607.95
2019-02-16T10:12:04.068Z,101607.50
2019-02-16T10:13:34.791Z,101607.46
2019-02-16T10:15:01.294Z,101602.97
2019-02-16T10:16:13.946Z,101598.89
2019-02-16T10:17:30.518Z,101603.33
2019-02-16T10:18:44.633Z,101593.91
2019-02-16T10:19:56.621Z,101596.55
2019-02-16T10:21:10.353Z,101586.56
2019-02-16T10:22:25.814Z,101588.81
2019-02-16T10:23:44.296Z,101589.25
2019-02-16T10:25:15.934Z,101590.54
2019-02-16T10:26:50.919Z,101588.73
2019-02-16T10:28:06.209Z,101585.53
2019-02-16T10:29:23.438Z,101589.52
2019-02-16T10:30:37.532Z,101586.35
2019-02-16T10:31:59.416Z,101585.39
2019-02-16T10:33:11.967Z,101578.53
2019-02-16T10:34:34.647Z,101577.64
2019-02-16T10:35:45.498Z,101576.70
2019-02-16T10:37:01.485Z,101572.66
2019-02-16T10:38:24.506Z,101576.65
2019-02-16T10:39:47.780Z,101571.19
2019-02-16T10:41:16.794Z,101569.75
2019-02-16T10:42:33.532Z,101575.95
2019-02-16T10:44:09.723Z,101564.25
2019-02-16T10:45:29.981Z,101559.23
2019-02-16T10:46:48.731Z,101561.45
2019-02-16T10:48:01.223Z,101569.47
2019-02-16T10:49:17.126Z,101560.91
2019-02-16T10:50:52.363Z,101556.78
2019-02-16T10:52:02.291Z,101553.08
2019-02-16T10:53:24.538Z,101554.80
2019-02-16T10:54:35.464Z,101555.65
2019-02-16T10:56:01.762Z,101558.59
2019-02-16T10:57:33.647Z,101553.65
2019-02-16T10:59:05.954Z,101555.28
2019-02-16T11:00:31.980Z,101549.76
2019-02-16T11:01:42.252Z,101542.93
2019-02-16T11:02:58.741Z,101539.30
2019-02-16T11:04:21.975Z,101536.94
2019-02-16T11:06:00.099Z,101541.41
2019-02-16T11:07:23.107Z,101539.03
2019-02-16T11:08:49.118Z,101534.36
2019-02-16T11:09:58.243Z,101527.88
2019-02-16T11:11:39.776Z,101529.17
2019-02-16T11:12:56.759Z,101531.48
2019-02-16T11:14:14.383Z,101527.34
2019-02-16T11:15:34.020Z,101524.09
2019-02-16T11:16:55.449Z,101528.11
2019-02-16T11:18:18.986Z,101524.44
2019-02-16T11:19:36.783Z,101518.06
2019-02-16T11:21:07.939Z,101521.05
2019-02-16T11:22:17.534Z,101513.77
2019-02-16T11:23:58.530Z,101510.89
2019-02-16T11:25:14.169Z,101512.66
2019-02-16T11:26:29.206Z,101509.25
2019-02-16T11:27:42.877Z,101508.15
2019-02-16T11:29:11.817Z,101504.45
2019-02-16T11:30:25.358Z,101504.05
2019-02-16T11:31:51.810Z,101506.91
2019-02-16T11:33:19.603Z,101500.61
2019-02-16T11:35:01.156Z,101498.80
2019-02-16T11:36:14.778Z,101501.18
2019-02-16T11:37:50.283Z,101494.25
2019-02-16T11:39:13.376Z,101487.32
2019-02-16T11:40:30.921Z,101488.59
2019-02-16T11:41:45.571Z,101490.83
2019-02-16T11:43:01.323Z,101490.85
2019-02-16T11:44:27.252Z,101491.44
2019-02-16T11:45:56.624Z,101484.98
2019-02-16T11:47:22.731Z,101480.95
2019-02-16T11:48:48.177Z,101476.06
2019-02-16T11:50:11.328Z,101475.05
2019-02-16T11:51:25.057Z,101479.88
2019-02-16T11:53:06.547Z,101471.57
2019-02-16T11:54:20.673Z,101475.35
2019-02-16T11:55:43.678Z,101468.83
2019-02-16T11:57:08.716Z,101466.88
2019-02-16T11:58:32.480Z,101461.98
2019-02-16T12:00:13.775Z,101466.38
2019-02-16T12:01:40.849Z,101460.80
2019-02-16T12:02:54.816Z,101460.70
2019-02-16T12:04:04.261Z,101462.22
2019-02-16T12:05:26.491Z,101460.83
2019-02-16T12:06:37.624Z,101457.16
2019-02-16T12:08:01.816Z,101456.06
2019-02-16T12:09:37.463Z,101453.25
2019-02-16T12:10:51.409Z,101451.33
2019-02-16T12:12:29.256Z,101455.21
2019-02-16T12:13:51.011Z,101450.54
2019-02-16T12:15:02.860Z,101447.65
2019-02-16T12:16:34.873Z,101445.26
2019-02-16T12:17:57.249Z,101446.47
2019-02-16T12:19:25.843Z,101445.89
2019-02-16T12:20:54.828Z,101443.93
2019-02-16T12:22:32.844Z,101438.39
2019-02-16T12:23:43.504Z,101440.95
2019-02-16T12:25:09.091Z,101438.91
2019-02-16T12:26:22.961Z,101429.34
2019-02-16T12:27:36.271Z,101433.28
2019-02-16T12:28:55.226Z,101428.62
2019-02-16T12:30:07.085Z,101425.77
2019-02-16T12:31:31.361Z,101426.58
2019-02-16T12:32:53.591Z,101421.45
2019-02-16T12:34:26.188Z,101427.31
2019-02-16T12:35:41.453Z,101424.98
2019-02-16T12:37:10.305Z,101419.52
2019-02-16T12:38:22.803Z,101418.89
2019-02-16T12:39:44.634Z,101419.62
2019-02-16T12:41:01.252Z,101415.00
2019-02-16T12:42:23.279Z,101409.87
2019-02-16T12:43:56.256Z,101408.89
2019-02-16T12:45:28.429Z,101406.14
2019-02-16T12:46:44.605Z,101405.98
2019-02-16T12:48:00.453Z,101404.48
2019-02-16T12:49:26.309Z,101402.08
2019-02-16T12:50:59.547Z,101395.20
2019-02-16T12:52:22.842Z,101399.48
2019-02-16T12:53:44.549Z,101392.14
2019-02-16T12:55:14.239Z,101389.72
2019-02-16T12:56:32.079Z,101386.49
2019-02-16T12:57:44.901Z,101379.66
2019-02-16T12:59:05.162Z,101381.27
2019-02-16T13:00:26.911Z,101377.10
2019-02-16T13:01:40.794Z,101374.62
2019-02-16T13:02:55.695Z,101371.22
2019-02-16T13:04:31.064Z,101374.31
2019-02-16T13:05:50.856Z,101372.73
2019-02-16T13:07:10.684Z,101373.25
2019-02-16T13:08:20.493Z,101373.81
2019-02-16T13:09:36.272Z,101367.82
2019-02-16T13:11:15.092Z,101362.23
2019-02-16T13:12:25.957Z,101359.05
2019-02-16T13:13:44.210Z,101362.23
2019-02-16T13:15:16.593Z,101357.69
2019-02-16T13:16:27.092Z,101357.69
2019-02-16T13:18:00.119Z,101353.09
2019-02-16T13:19:22.292Z,101354.35
2019-02-16T13:20:35.637Z,101352.94
2019-02-16T13:22:04.535Z,101354.35
2019-02-16T13:23:33.577Z,101346.15
2019-02-16T13:24:49.867Z,101342.82
2019-02-16T13:26:03.339Z,101344.08
2019-02-16T13:27:26.266Z,101342.15
2019-02-16T13:28:40.787Z,101345.98
2019-02-16T13:30:01.840Z,101338.58
2019-02-16T13:31:20.152Z,101334.81
2019-02-16T13:32:53.519Z,101340.01
2019-02-16T13:34:25.517Z,101335.51
2019-02-16T13:35:47.075Z,101332.80
2019-02-16T13:37:09.303Z,101331.80